createdAt,value
2018-02-15T00:01:54.964Z,7.22
2018-02-15T00:04:22.415Z,8.10
2018-02-15T00:06:49.874Z,8.15
2018-02-15T00:09:17.339Z,8.33
2018-02-15T00:11:44.783Z,7.40
2018-02-15T00:14:12.252Z,8.30
2018-02-15T00:16:39.695Z,7.10
2018-02-15T00:19:07.915Z,7.47
2018-02-15T00:21:35.360Z,7.40
2018-02-15T00:24:02.824Z,7.63
2018-02-15T00:26:30.265Z,6.97
2018-02-15T00:28:57.729Z,7.93
2018-02-15T00:31:25.179Z,7.28
2018-02-15T00:33:53.394Z,8.07
2018-02-15T00:36:20.842Z,7.60
2018-02-15T00:38:48.291Z,7.53
2018-02-15T00:41:16.514Z,7.30
2018-02-15T00:43:43.970Z,7.32
2018-02-15T00:46:11.409Z,7.87
2018-02-15T00:48:38.873Z,8.30
2018-02-15T00:51:06.313Z,7.30
2018-02-15T00:53:34.531Z,7.75
2018-02-15T00:56:02.003Z,8.02
2018-02-15T00:58:29.452Z,8.55
2018-02-15T01:00:56.912Z,7.20
2018-02-15T01:03:24.354Z,7.10
2018-02-15T01:05:51.814Z,7.07
2018-02-15T01:08:20.015Z,9.10
2018-02-15T01:10:47.462Z,7.50
2018-02-15T01:13:14.910Z,8.00
2018-02-15T01:15:43.144Z,7.57
2018-02-15T01:18:10.587Z,8.47
2018-02-15T01:20:38.051Z,8.35
2018-02-15T01:23:05.496Z,7.53
2018-02-15T01:25:32.968Z,7.60
2018-02-15T01:28:00.424Z,7.87
2018-02-15T01:30:27.892Z,8.17
2018-02-15T01:32:55.348Z,7.20
2018-02-15T01:35:22.807Z,7.67
2018-02-15T01:37:50.251Z,7.50
2018-02-15T01:40:17.719Z,7.60
2018-02-15T01:42:45.176Z,7.80
2018-02-15T01:45:13.402Z,9.50
2018-02-15T01:47:40.844Z,7.20
2018-02-15T01:50:08.311Z,8.32
2018-02-15T01:52:35.747Z,7.90
2018-02-15T01:55:03.203Z,7.77
2018-02-15T01:57:31.423Z,7.53
2018-02-15T01:59:58.884Z,9.00
2018-02-15T02:02:26.330Z,7.63
2018-02-15T02:04:53.786Z,9.43
2018-02-15T02:07:21.235Z,8.23
2018-02-15T02:09:49.455Z,8.57
2018-02-15T02:12:16.911Z,8.63
2018-02-15T02:14:44.375Z,8.50
2018-02-15T02:17:11.827Z,8.17
2018-02-15T02:19:39.290Z,9.05
2018-02-15T02:22:06.756Z,8.30
2018-02-15T02:24:34.219Z,8.10
2018-02-15T02:27:01.677Z,8.50
2018-02-15T02:29:29.125Z,7.60
2018-02-15T02:31:56.576Z,7.40
2018-02-15T02:34:24.788Z,6.87
2018-02-15T02:36:52.251Z,7.77
2018-02-15T02:39:19.702Z,7.30
2018-02-15T02:41:47.172Z,9.07
2018-02-15T02:44:14.611Z,4.90
2018-02-15T02:46:42.093Z,8.15
2018-02-15T02:49:09.536Z,7.75
2018-02-15T02:51:36.990Z,6.22
2018-02-15T02:54:05.205Z,8.07
2018-02-15T02:56:32.671Z,9.47
2018-02-15T02:59:00.128Z,8.17
2018-02-15T03:01:27.608Z,8.73
2018-02-15T03:03:55.068Z,6.50
2018-02-15T03:06:22.517Z,7.30
2018-02-15T03:08:49.962Z,8.15
2018-02-15T03:11:17.422Z,8.88
2018-02-15T03:13:44.871Z,6.87
2018-02-15T03:16:13.100Z,9.13
2018-02-15T03:18:40.550Z,8.13
2018-02-15T03:21:08.005Z,7.20
2018-02-15T03:23:35.463Z,7.53
2018-02-15T03:26:02.910Z,7.93
2018-02-15T03:28:30.369Z,8.23
2018-02-15T03:30:57.833Z,7.75
2018-02-15T03:33:25.284Z,6.50
2018-02-15T03:35:53.505Z,7.90
2018-02-15T03:38:20.951Z,8.73
2018-02-15T03:40:48.416Z,7.53
2018-02-15T03:43:15.869Z,8.63
2018-02-15T03:45:43.315Z,8.13
2018-02-15T03:48:10.774Z,8.10
2018-02-15T03:50:38.992Z,6.50
2018-02-15T03:53:06.449Z,9.43
2018-02-15T03:55:33.895Z,8.53
2018-02-15T03:58:01.359Z,8.73
2018-02-15T04:00:28.800Z,7.12
2018-02-15T04:02:57.023Z,7.17
2018-02-15T04:05:24.481Z,9.10
2018-02-15T04:07:51.974Z,7.85
2018-02-15T04:10:19.428Z,8.02
2018-02-15T04:12:46.892Z,9.18
2018-02-15T04:15:14.333Z,8.70
2018-02-15T04:17:41.812Z,7.03
2018-02-15T04:20:09.235Z,8.53
2018-02-15T04:22:36.791Z,9.77
2018-02-15T04:25:04.999Z,7.73
2018-02-15T04:27:32.477Z,7.50
2018-02-15T04:29:59.914Z,8.53
2018-02-15T04:32:27.383Z,8.88
2018-02-15T04:34:54.831Z,9.90
2018-02-15T04:37:22.305Z,8.50
2018-02-15T04:39:49.770Z,8.13
2018-02-15T04:42:17.227Z,9.60
2018-02-15T04:44:44.684Z,9.57
2018-02-15T04:47:12.155Z,10.20
2018-02-15T04:49:39.616Z,9.10
2018-02-15T04:52:07.067Z,9.10
2018-02-15T04:54:34.520Z,8.70
2018-02-15T04:57:01.981Z,10.20
2018-02-15T04:59:30.190Z,8.87
2018-02-15T05:01:57.637Z,9.37
2018-02-15T05:04:25.078Z,10.40
2018-02-15T05:06:52.556Z,10.48
2018-02-15T05:09:20.007Z,10.20
2018-02-15T05:11:47.467Z,10.20
2018-02-15T05:14:15.699Z,11.05
2018-02-15T05:16:43.159Z,10.02
2018-02-15T05:19:10.629Z,8.40
2018-02-15T05:21:38.085Z,9.85
2018-02-15T05:24:05.542Z,9.82
2018-02-15T05:26:32.991Z,9.90
2018-02-15T05:29:00.446Z,10.10
2018-02-15T05:31:27.898Z,9.77
2018-02-15T05:33:55.358Z,9.73
2018-02-15T05:36:22.824Z,10.17
2018-02-15T05:38:50.279Z,9.70
2018-02-15T05:41:17.727Z,10.23
2018-02-15T05:43:45.961Z,11.48
2018-02-15T05:46:13.415Z,9.50
2018-02-15T05:48:40.883Z,10.43
2018-02-15T05:51:08.343Z,10.30
2018-02-15T05:53:35.807Z,10.57
2018-02-15T05:56:03.267Z,9.83
2018-02-15T05:58:30.730Z,11.10
2018-02-15T06:00:58.192Z,11.73
2018-02-15T06:03:25.654Z,11.48
2018-02-15T06:05:53.111Z,11.63
2018-02-15T06:08:20.571Z,10.20
2018-02-15T06:10:48.022Z,10.80
2018-02-15T06:13:15.492Z,9.63
2018-02-15T06:15:42.951Z,10.57
2018-02-15T06:18:10.425Z,11.68
2018-02-15T06:20:37.885Z,10.13
2018-02-15T06:23:05.351Z,11.10
2018-02-15T06:25:32.803Z,11.52
2018-02-15T06:28:00.268Z,10.63
2018-02-15T06:30:27.713Z,10.10
2018-02-15T06:32:55.160Z,10.45
2018-02-15T06:35:22.625Z,9.43
2018-02-15T06:37:50.084Z,10.43
2018-02-15T06:40:17.551Z,10.93
2018-02-15T06:42:44.994Z,9.38
2018-02-15T06:45:13.227Z,10.77
2018-02-15T06:47:40.728Z,10.13
2018-02-15T06:50:08.190Z,9.77
2018-02-15T06:52:35.707Z,8.82
2018-02-15T06:55:03.175Z,10.07
2018-02-15T06:57:30.631Z,10.13
2018-02-15T06:59:58.109Z,8.90
2018-02-15T07:02:25.566Z,8.52
2018-02-15T07:04:53.036Z,8.75
2018-02-15T07:07:20.498Z,7.80
2018-02-15T07:09:47.946Z,8.27
2018-02-15T07:12:15.409Z,7.47
2018-02-15T07:14:42.887Z,8.35
2018-02-15T07:17:10.344Z,9.18
2018-02-15T07:19:37.806Z,7.47
2018-02-15T07:22:05.266Z,8.10
2018-02-15T07:24:32.727Z,8.63
2018-02-15T07:27:00.187Z,7.28
2018-02-15T07:29:27.675Z,7.05
2018-02-15T07:31:55.142Z,8.32
2018-02-15T07:34:22.598Z,7.90
2018-02-15T07:36:50.058Z,7.87
2018-02-15T07:39:17.519Z,6.15
2018-02-15T07:41:44.971Z,6.70
2018-02-15T07:44:12.430Z,7.30
2018-02-15T07:46:39.887Z,9.07
2018-02-15T07:49:07.361Z,8.00
2018-02-15T07:51:34.812Z,7.30
2018-02-15T07:54:02.274Z,6.95
2018-02-15T07:56:29.718Z,7.40
2018-02-15T07:58:57.191Z,6.82
2018-02-15T08:01:24.643Z,6.95
2018-02-15T08:03:52.094Z,7.60
2018-02-15T08:06:19.564Z,7.40
2018-02-15T08:08:47.028Z,6.65
2018-02-15T08:11:14.475Z,7.07
2018-02-15T08:13:41.968Z,7.18
2018-02-15T08:16:10.169Z,7.22
2018-02-15T08:18:37.615Z,7.68
2018-02-15T08:21:05.096Z,7.82
2018-02-15T08:23:32.556Z,8.50
2018-02-15T08:26:00.043Z,8.32
2018-02-15T08:28:27.479Z,7.40
2018-02-15T08:30:54.955Z,8.00
2018-02-15T08:33:22.418Z,7.60
2018-02-15T08:35:49.875Z,8.68
2018-02-15T08:38:17.334Z,7.97
2018-02-15T08:40:44.791Z,7.32
2018-02-15T08:43:12.238Z,8.23
2018-02-15T08:45:39.708Z,8.35
2018-02-15T08:48:07.159Z,7.20
2018-02-15T08:50:34.638Z,7.93
2018-02-15T08:53:02.074Z,8.63
2018-02-15T08:55:29.588Z,7.93
2018-02-15T08:57:57.049Z,10.25
2018-02-15T09:00:24.511Z,12.02
2018-02-15T09:02:51.950Z,8.60
2018-02-15T09:05:19.421Z,10.00
2018-02-15T09:07:46.880Z,8.97
2018-02-15T09:10:14.335Z,8.40
2018-02-15T09:12:41.787Z,8.63
2018-02-15T09:15:09.246Z,9.13
2018-02-15T09:17:36.706Z,9.63
2018-02-15T09:20:04.160Z,8.13
2018-02-15T09:22:31.614Z,9.38
2018-02-15T09:24:59.069Z,8.87
2018-02-15T09:27:27.296Z,10.20
2018-02-15T09:29:54.763Z,8.30
2018-02-15T09:32:23.039Z,8.63
2018-02-15T09:34:50.492Z,8.73
2018-02-15T09:37:18.170Z,10.67
2018-02-15T09:39:45.626Z,8.77
2018-02-15T09:42:13.102Z,11.00
2018-02-15T09:44:40.557Z,10.60
2018-02-15T09:47:08.027Z,10.75
2018-02-15T09:49:35.478Z,9.50
2018-02-15T09:52:02.931Z,9.63
2018-02-15T09:54:30.396Z,8.38
2018-02-15T09:56:57.860Z,8.90
2018-02-15T09:59:25.306Z,11.15
2018-02-15T10:01:52.775Z,8.93
2018-02-15T10:04:20.235Z,8.48
2018-02-15T10:06:47.690Z,8.13
2018-02-15T10:09:15.155Z,9.50
2018-02-15T10:11:42.635Z,8.80
2018-02-15T10:14:10.092Z,8.67
2018-02-15T10:16:37.552Z,9.33
2018-02-15T10:19:05.010Z,9.50
2018-02-15T10:21:32.483Z,8.88
2018-02-15T10:23:59.932Z,9.00
2018-02-15T10:26:27.393Z,9.80
2018-02-15T10:28:54.859Z,8.50
2018-02-15T10:31:22.326Z,9.73
2018-02-15T10:33:49.781Z,8.30
2018-02-15T10:36:17.245Z,7.60
2018-02-15T10:38:45.515Z,8.73
2018-02-15T10:41:12.972Z,9.90
2018-02-15T10:43:40.434Z,10.57
2018-02-15T10:46:07.899Z,10.53
2018-02-15T10:48:35.377Z,9.97
2018-02-15T10:51:03.678Z,10.20
2018-02-15T10:53:31.126Z,8.70
2018-02-15T10:55:58.578Z,10.27
2018-02-15T10:58:26.045Z,10.38
2018-02-15T11:00:59.051Z,9.20
2018-02-15T11:03:30.411Z,8.93
2018-02-15T11:06:00.795Z,8.50
2018-02-15T11:08:28.283Z,10.23
2018-02-15T11:10:55.735Z,9.57
2018-02-15T11:13:23.205Z,8.52
2018-02-15T11:15:50.664Z,7.60
2018-02-15T11:18:18.133Z,7.87
2018-02-15T11:20:45.588Z,7.10
2018-02-15T11:23:13.056Z,7.70
2018-02-15T11:25:40.511Z,8.50
2018-02-15T11:28:08.738Z,9.17
2018-02-15T11:30:36.174Z,6.97
2018-02-15T11:33:03.639Z,7.20
2018-02-15T11:35:31.084Z,7.50
2018-02-15T11:37:58.542Z,7.55
2018-02-15T11:40:25.987Z,7.63
2018-02-15T11:42:53.461Z,6.57
2018-02-15T11:45:20.923Z,7.53
2018-02-15T11:47:48.378Z,7.10
2018-02-15T11:50:15.827Z,7.17
2018-02-15T11:52:44.042Z,6.80
2018-02-15T11:55:11.490Z,7.27
2018-02-15T11:57:38.937Z,7.37
2018-02-15T12:00:06.388Z,6.53
2018-02-15T12:02:34.608Z,7.17
2018-02-15T12:05:02.076Z,7.00
2018-02-15T12:07:29.533Z,7.73
2018-02-15T12:09:56.987Z,6.90
2018-02-15T12:12:24.447Z,6.50
2018-02-15T12:14:51.907Z,6.73
2018-02-15T12:17:19.371Z,6.17
2018-02-15T12:19:46.817Z,6.33
2018-02-15T12:22:14.275Z,6.80
2018-02-15T12:24:41.731Z,7.77
2018-02-15T12:27:09.942Z,7.50
2018-02-15T12:29:37.411Z,7.23
2018-02-15T12:32:04.859Z,6.73
2018-02-15T12:34:32.324Z,6.27
2018-02-15T12:36:59.767Z,7.80
2018-02-15T12:39:27.239Z,7.87
2018-02-15T12:41:54.679Z,7.70
2018-02-15T12:44:22.904Z,7.03
2018-02-15T12:46:50.350Z,7.07
2018-02-15T12:49:17.801Z,7.90
2018-02-15T12:51:45.230Z,7.13
2018-02-15T12:54:12.678Z,7.10
2018-02-15T12:56:40.139Z,7.97
2018-02-15T12:59:07.636Z,7.07
2018-02-15T13:01:35.842Z,7.40
2018-02-15T13:04:03.304Z,7.93
2018-02-15T13:06:30.754Z,8.17
2018-02-15T13:08:58.209Z,7.87
2018-02-15T13:11:26.422Z,6.33
2018-02-15T13:13:53.884Z,6.57
2018-02-15T13:16:33.147Z,6.07
2018-02-15T13:19:12.444Z,7.23
2018-02-15T13:21:39.888Z,6.50
2018-02-15T13:24:07.372Z,7.90
2018-02-15T13:26:34.816Z,5.90
2018-02-15T13:29:02.270Z,7.50
2018-02-15T13:31:29.728Z,7.53
2018-02-15T13:33:57.184Z,6.93
2018-02-15T13:36:25.395Z,6.53
2018-02-15T13:38:52.851Z,7.43
2018-02-15T13:41:20.295Z,7.13
2018-02-15T13:43:47.750Z,7.43
2018-02-15T13:46:15.959Z,7.37
2018-02-15T13:48:43.403Z,6.57
2018-02-15T13:51:10.867Z,6.90
2018-02-15T13:53:38.311Z,7.47
2018-02-15T13:56:06.533Z,7.33
2018-02-15T13:58:33.971Z,6.70
2018-02-15T14:01:01.424Z,7.80
2018-02-15T14:03:29.628Z,8.07
2018-02-15T14:05:57.084Z,7.23
2018-02-15T14:08:24.530Z,6.77
2018-02-15T14:10:52.743Z,7.93
2018-02-15T14:13:20.185Z,6.60
2018-02-15T14:15:47.653Z,7.57
2018-02-15T14:18:15.100Z,7.37
2018-02-15T14:20:42.556Z,8.00
2018-02-15T14:23:09.990Z,6.90
2018-02-15T14:25:37.449Z,8.07
2018-02-15T14:28:04.886Z,6.60
2018-02-15T14:30:32.344Z,6.63
2018-02-15T14:32:59.787Z,6.70
2018-02-15T14:35:27.257Z,6.00
2018-02-15T14:37:54.698Z,7.17
2018-02-15T14:40:22.189Z,6.37
2018-02-15T14:42:50.368Z,7.30
2018-02-15T14:45:17.816Z,6.37
2018-02-15T14:47:45.255Z,7.27
2018-02-15T14:50:13.468Z,6.77
2018-02-15T14:52:40.911Z,6.97
2018-02-15T14:55:08.354Z,6.90
2018-02-15T14:57:36.564Z,6.80
2018-02-15T15:00:04.018Z,6.40
2018-02-15T15:02:31.462Z,5.33
2018-02-15T15:04:59.691Z,6.10
2018-02-15T15:07:27.127Z,5.70
2018-02-15T15:09:54.577Z,6.17
2018-02-15T15:12:22.027Z,6.80
2018-02-15T15:14:50.252Z,7.03
2018-02-15T15:17:17.697Z,7.07
2018-02-15T15:19:45.129Z,5.80
2018-02-15T15:22:13.341Z,7.23
2018-02-15T15:24:40.786Z,6.13
2018-02-15T15:27:08.242Z,7.90
2018-02-15T15:29:35.691Z,7.03
2018-02-15T15:32:03.915Z,7.00
2018-02-15T15:34:31.354Z,6.93
2018-02-15T15:36:58.803Z,7.13
2018-02-15T15:39:27.026Z,6.00
2018-02-15T15:41:54.470Z,7.10
2018-02-15T15:44:21.930Z,6.90
2018-02-15T15:46:49.388Z,7.20
2018-02-15T15:49:16.827Z,9.53
2018-02-15T15:51:45.053Z,10.10
2018-02-15T15:54:12.495Z,7.60
2018-02-15T15:56:39.959Z,7.70
2018-02-15T15:59:07.400Z,7.70
2018-02-15T16:01:34.859Z,7.50
2018-02-15T16:04:03.059Z,6.43
2018-02-15T16:06:30.504Z,6.60
2018-02-15T16:08:57.933Z,6.47
2018-02-15T16:11:25.392Z,6.43
2018-02-15T16:13:52.841Z,6.60
2018-02-15T16:16:20.282Z,6.00
2018-02-15T16:18:47.723Z,6.27
2018-02-15T16:21:15.183Z,7.80
2018-02-15T16:23:42.620Z,7.73
2018-02-15T16:26:10.848Z,7.73
2018-02-15T16:28:38.287Z,6.97
2018-02-15T16:31:05.748Z,7.30
2018-02-15T16:33:33.183Z,6.93
2018-02-15T16:36:00.639Z,8.70
2018-02-15T16:38:28.078Z,8.80
2018-02-15T16:40:55.558Z,8.77
2018-02-15T16:43:23.003Z,7.60
2018-02-15T16:45:50.438Z,8.07
2018-02-15T16:48:17.895Z,6.97
2018-02-15T16:50:45.348Z,7.33
2018-02-15T16:53:12.780Z,6.97
2018-02-15T16:55:40.978Z,6.80
2018-02-15T16:58:08.410Z,6.87
2018-02-15T17:00:35.854Z,6.80
2018-02-15T17:03:03.299Z,6.80
2018-02-15T17:05:30.747Z,5.70
2018-02-15T17:07:58.176Z,6.97
2018-02-15T17:10:26.372Z,7.23
2018-02-15T17:12:53.809Z,6.43
2018-02-15T17:15:22.020Z,6.60
2018-02-15T17:17:49.455Z,6.47
2018-02-15T17:20:17.649Z,6.37
2018-02-15T17:22:45.866Z,6.73
2018-02-15T17:25:13.301Z,8.80
2018-02-15T17:27:40.746Z,8.27
2018-02-15T17:30:08.936Z,8.00
2018-02-15T17:32:36.381Z,8.53
2018-02-15T17:35:04.585Z,7.27
2018-02-15T17:37:32.023Z,5.97
2018-02-15T17:40:00.238Z,6.30
2018-02-15T17:42:27.688Z,6.60
2018-02-15T17:44:55.130Z,6.57
2018-02-15T17:47:23.344Z,6.37
2018-02-15T17:49:50.776Z,8.10
2018-02-15T17:52:18.981Z,9.37
2018-02-15T17:54:46.430Z,9.97
2018-02-15T17:57:13.868Z,8.67
2018-02-15T17:59:42.065Z,7.87
2018-02-15T18:02:09.511Z,8.77
2018-02-15T18:04:37.701Z,7.37
2018-02-15T18:07:05.909Z,6.67
2018-02-15T18:09:33.336Z,8.00
2018-02-15T18:12:01.532Z,7.67
2018-02-15T18:14:28.964Z,8.00
2018-02-15T18:16:57.162Z,6.70
2018-02-15T18:19:25.364Z,8.87
2018-02-15T18:21:52.793Z,8.97
2018-02-15T18:24:20.992Z,8.20
2018-02-15T18:26:48.432Z,7.50
2018-02-15T18:29:16.646Z,7.47
2018-02-15T18:31:46.777Z,7.67
2018-02-15T18:34:14.211Z,8.73
2018-02-15T18:36:41.643Z,8.07
2018-02-15T18:39:09.084Z,6.90
2018-02-15T18:41:36.529Z,9.20
2018-02-15T18:44:03.980Z,8.97
2018-02-15T18:46:31.493Z,9.37
2018-02-15T18:48:58.935Z,9.50
2018-02-15T18:51:26.366Z,9.30
2018-02-15T18:53:53.825Z,9.70
2018-02-15T18:56:21.273Z,10.00
2018-02-15T18:58:49.487Z,9.03
2018-02-15T19:01:16.925Z,10.17
2018-02-15T19:03:44.364Z,8.60
2018-02-15T19:06:12.561Z,7.50
2018-02-15T19:08:39.992Z,8.70
2018-02-15T19:11:07.442Z,12.17
2018-02-15T19:13:34.880Z,10.63
2018-02-15T19:16:02.325Z,11.20
2018-02-15T19:18:29.782Z,9.70
2018-02-15T19:20:57.219Z,10.27
2018-02-15T19:23:25.417Z,10.70
2018-02-15T19:25:52.871Z,7.83
2018-02-15T19:28:20.329Z,8.10
2018-02-15T19:30:48.535Z,9.03
2018-02-15T19:33:15.985Z,7.87
2018-02-15T19:35:43.447Z,7.90
2018-02-15T19:38:11.638Z,8.37
2018-02-15T19:40:39.053Z,8.13
2018-02-15T19:43:07.277Z,8.70
2018-02-15T19:45:34.727Z,8.10
2018-02-15T19:48:02.170Z,8.07
2018-02-15T19:50:30.387Z,7.77
2018-02-15T19:52:57.822Z,7.80
2018-02-15T19:55:25.257Z,7.57
2018-02-15T19:57:52.688Z,7.90
2018-02-15T20:00:20.140Z,8.80
2018-02-15T20:02:47.595Z,9.13
2018-02-15T20:05:15.044Z,8.10
2018-02-15T20:07:42.479Z,8.23
2018-02-15T20:10:10.680Z,9.73
2018-02-15T20:12:38.125Z,9.07
2018-02-15T20:15:06.336Z,9.17
2018-02-15T20:17:33.769Z,9.20
2018-02-15T20:20:07.637Z,9.30
2018-02-15T20:22:35.085Z,10.53
2018-02-15T20:25:02.534Z,7.87
2018-02-15T20:27:35.642Z,8.40
2018-02-15T20:30:03.098Z,8.53
2018-02-15T20:32:30.544Z,8.18
2018-02-15T20:34:57.980Z,9.30
2018-02-15T20:37:30.978Z,10.20
2018-02-15T20:40:03.995Z,9.60
2018-02-15T20:42:31.440Z,10.43
2018-02-15T20:44:58.901Z,10.73
2018-02-15T20:47:26.335Z,8.60
2018-02-15T20:50:00.093Z,9.47
2018-02-15T20:52:33.086Z,9.10
2018-02-15T20:58:05.431Z,10.80
2018-02-15T21:00:32.917Z,10.93
2018-02-15T21:03:00.317Z,11.50
2018-02-15T21:05:27.791Z,13.87
2018-02-15T21:07:55.987Z,16.57
2018-02-15T21:10:23.508Z,10.83
2018-02-15T21:12:50.943Z,11.70
2018-02-15T21:15:18.500Z,10.87
2018-02-15T21:17:45.944Z,9.20
2018-02-15T21:20:13.423Z,10.43
2018-02-15T21:22:40.862Z,9.43
2018-02-15T21:25:09.068Z,10.07
2018-02-15T21:27:36.500Z,9.03
2018-02-15T21:30:03.958Z,9.33
2018-02-15T21:32:32.182Z,10.33
2018-02-15T21:34:59.638Z,9.70
2018-02-15T21:37:27.078Z,9.07
2018-02-15T21:39:54.502Z,9.83
2018-02-15T21:42:21.944Z,10.80
2018-02-15T21:44:49.385Z,9.73
2018-02-15T21:47:16.829Z,9.67
2018-02-15T21:49:44.284Z,10.70
2018-02-15T21:52:11.729Z,9.47
2018-02-15T21:54:39.943Z,10.10
2018-02-15T21:57:07.389Z,10.37
2018-02-15T21:59:34.836Z,10.00
2018-02-15T22:02:03.057Z,11.57
2018-02-15T22:04:30.489Z,12.53
2018-02-15T22:06:57.941Z,12.23
2018-02-15T22:09:26.131Z,10.70
2018-02-15T22:11:53.585Z,10.87
2018-02-15T22:14:21.025Z,11.20
2018-02-15T22:16:48.473Z,9.57
2018-02-15T22:19:15.950Z,10.00
2018-02-15T22:21:43.393Z,9.80
2018-02-15T22:24:11.616Z,10.30
2018-02-15T22:26:39.846Z,12.17
2018-02-15T22:29:07.286Z,10.60
2018-02-15T22:31:34.734Z,10.03
2018-02-15T22:34:02.162Z,8.90
2018-02-15T22:36:29.619Z,13.30
2018-02-15T22:38:57.209Z,12.20
2018-02-15T22:41:25.423Z,10.60
2018-02-15T22:43:52.863Z,13.50
2018-02-15T22:46:20.327Z,11.43
2018-02-15T22:48:47.772Z,12.50
2018-02-15T22:51:15.995Z,11.27
2018-02-15T22:53:43.443Z,10.53
2018-02-15T22:56:10.894Z,10.80
2018-02-15T22:58:38.340Z,9.67
2018-02-15T23:01:06.558Z,9.43
2018-02-15T23:03:34.008Z,9.10
2018-02-15T23:06:01.447Z,10.20
2018-02-15T23:08:29.671Z,8.27
2018-02-15T23:10:57.111Z,8.90
2018-02-15T23:13:24.546Z,8.40
2018-02-15T23:15:52.751Z,9.17
2018-02-15T23:18:20.261Z,8.67
2018-02-15T23:20:48.480Z,8.43
2018-02-15T23:23:15.923Z,7.97
2018-02-15T23:25:43.348Z,8.30
2018-02-15T23:28:10.836Z,8.67
2018-02-15T23:30:39.048Z,7.80
2018-02-15T23:33:06.506Z,8.30
2018-02-15T23:35:33.962Z,8.93
2018-02-15T23:38:01.405Z,7.20
2018-02-15T23:40:28.842Z,9.43
2018-02-15T23:42:56.281Z,8.70
2018-02-15T23:45:23.713Z,7.40
2018-02-15T23:47:51.157Z,8.37
2018-02-15T23:50:18.603Z,8.67
2018-02-15T23:52:46.822Z,7.90
2018-02-15T23:55:14.258Z,7.90
2018-02-15T23:57:41.734Z,7.32
